sensor_id;sensor_type;location;lat;lon;timestamp;P1;durP1;ratioP1;P2;durP2;ratioP2
7707;SDS011;3896;48.758;8.888;2022-12-05T00:01:10;14.87;;;7.47;;
7707;SDS011;3896;48.758;8.888;2022-12-05T00:03:37;12.43;;;7.47;;
7707;SDS011;3896;48.758;8.888;2022-12-05T00:06:03;11.30;;;7.20;;
7707;SDS011;3896;48.758;8.888;2022-12-05T00:08:29;11.87;;;7.17;;
7707;SDS011;3896;48.758;8.888;2022-12-05T00:10:54;14.73;;;8.50;;
7707;SDS011;3896;48.758;8.888;2022-12-05T00:13:20;14.53;;;8.10;;
7707;SDS011;3896;48.758;8.888;2022-12-05T00:15:45;13.47;;;7.53;;
7707;SDS011;3896;48.758;8.888;2022-12-05T00:18:11;15.23;;;7.63;;
7707;SDS011;3896;48.758;8.888;2022-12-05T00:20:36;10.30;;;6.63;;
7707;SDS011;3896;48.758;8.888;2022-12-05T00:23:12;12.70;;;7.70;;
7707;SDS011;3896;48.758;8.888;2022-12-05T00:25:38;13.67;;;7.57;;
7707;SDS011;3896;48.758;8.888;2022-12-05T00:28:03;17.30;;;8.40;;
7707;SDS011;3896;48.758;8.888;2022-12-05T00:30:29;12.97;;;7.93;;
7707;SDS011;3896;48.758;8.888;2022-12-05T00:32:55;16.53;;;8.90;;
7707;SDS011;3896;48.758;8.888;2022-12-05T00:35:21;17.80;;;8.83;;
7707;SDS011;3896;48.758;8.888;2022-12-05T00:37:46;16.00;;;8.47;;
7707;SDS011;3896;48.758;8.888;2022-12-05T00:40:12;14.87;;;7.33;;
7707;SDS011;3896;48.758;8.888;2022-12-05T00:42:38;15.47;;;8.80;;
7707;SDS011;3896;48.758;8.888;2022-12-05T00:45:03;15.90;;;8.10;;
7707;SDS011;3896;48.758;8.888;2022-12-05T00:47:29;17.17;;;8.93;;
7707;SDS011;3896;48.758;8.888;2022-12-05T00:49:58;17.80;;;8.83;;
7707;SDS011;3896;48.758;8.888;2022-12-05T00:52:23;9.77;;;6.57;;
7707;SDS011;3896;48.758;8.888;2022-12-05T00:54:49;12.83;;;7.40;;
7707;SDS011;3896;48.758;8.888;2022-12-05T00:57:15;14.40;;;8.17;;
7707;SDS011;3896;48.758;8.888;2022-12-05T00:59:40;13.63;;;7.50;;
7707;SDS011;3896;48.758;8.888;2022-12-05T01:02:06;12.30;;;7.07;;
7707;SDS011;3896;48.758;8.888;2022-12-05T01:04:31;13.00;;;7.30;;
7707;SDS011;3896;48.758;8.888;2022-12-05T01:06:57;11.00;;;6.90;;
7707;SDS011;3896;48.758;8.888;2022-12-05T01:09:23;11.57;;;7.17;;
7707;SDS011;3896;48.758;8.888;2022-12-05T01:11:49;15.73;;;7.50;;
7707;SDS011;3896;48.758;8.888;2022-12-05T01:14:16;12.07;;;7.33;;
7707;SDS011;3896;48.758;8.888;2022-12-05T01:16:44;13.17;;;7.83;;
7707;SDS011;3896;48.758;8.888;2022-12-05T01:19:22;12.90;;;7.77;;
7707;SDS011;3896;48.758;8.888;2022-12-05T01:21:50;11.17;;;7.57;;
7707;SDS011;3896;48.758;8.888;2022-12-05T01:24:17;15.90;;;8.83;;
7707;SDS011;3896;48.758;8.888;2022-12-05T01:26:44;14.93;;;8.30;;
7707;SDS011;3896;48.758;8.888;2022-12-05T01:29:13;14.60;;;8.03;;
7707;SDS011;3896;48.758;8.888;2022-12-05T01:31:40;14.40;;;8.23;;
7707;SDS011;3896;48.758;8.888;2022-12-05T01:34:07;12.27;;;7.70;;
7707;SDS011;3896;48.758;8.888;2022-12-05T01:36:36;14.70;;;7.90;;
7707;SDS011;3896;48.758;8.888;2022-12-05T01:39:03;12.77;;;7.70;;
7707;SDS011;3896;48.758;8.888;2022-12-05T01:41:30;16.70;;;8.50;;
7707;SDS011;3896;48.758;8.888;2022-12-05T01:44:02;18.83;;;9.07;;
7707;SDS011;3896;48.758;8.888;2022-12-05T01:46:29;15.93;;;8.90;;
7707;SDS011;3896;48.758;8.888;2022-12-05T01:48:59;15.80;;;8.23;;
7707;SDS011;3896;48.758;8.888;2022-12-05T01:51:26;19.93;;;9.57;;
7707;SDS011;3896;48.758;8.888;2022-12-05T01:53:51;18.10;;;9.10;;
7707;SDS011;3896;48.758;8.888;2022-12-05T01:56:17;17.00;;;8.50;;
7707;SDS011;3896;48.758;8.888;2022-12-05T01:58:44;21.13;;;8.83;;
7707;SDS011;3896;48.758;8.888;2022-12-05T02:01:11;20.33;;;9.17;;
7707;SDS011;3896;48.758;8.888;2022-12-05T02:03:40;19.67;;;10.37;;
7707;SDS011;3896;48.758;8.888;2022-12-05T02:06:08;20.10;;;9.90;;
7707;SDS011;3896;48.758;8.888;2022-12-05T02:08:34;17.23;;;9.07;;
7707;SDS011;3896;48.758;8.888;2022-12-05T02:11:00;19.60;;;9.80;;
7707;SDS011;3896;48.758;8.888;2022-12-05T02:16:27;19.83;;;10.40;;
7707;SDS011;3896;48.758;8.888;2022-12-05T02:36:16;17.60;;;8.23;;
7707;SDS011;3896;48.758;8.888;2022-12-05T02:39:13;15.90;;;8.57;;
7707;SDS011;3896;48.758;8.888;2022-12-05T02:41:48;16.77;;;8.77;;
7707;SDS011;3896;48.758;8.888;2022-12-05T02:44:20;19.03;;;9.27;;
7707;SDS011;3896;48.758;8.888;2022-12-05T02:46:51;18.27;;;9.53;;
7707;SDS011;3896;48.758;8.888;2022-12-05T02:49:19;17.67;;;9.00;;
7707;SDS011;3896;48.758;8.888;2022-12-05T02:51:50;20.03;;;8.87;;
7707;SDS011;3896;48.758;8.888;2022-12-05T02:54:22;20.50;;;10.50;;
7707;SDS011;3896;48.758;8.888;2022-12-05T02:56:50;22.80;;;11.10;;
7707;SDS011;3896;48.758;8.888;2022-12-05T02:59:17;22.20;;;11.37;;
7707;SDS011;3896;48.758;8.888;2022-12-05T03:01:44;26.13;;;11.87;;
7707;SDS011;3896;48.758;8.888;2022-12-05T03:04:11;23.83;;;11.27;;
7707;SDS011;3896;48.758;8.888;2022-12-05T03:06:46;23.43;;;10.40;;
7707;SDS011;3896;48.758;8.888;2022-12-05T03:09:20;24.83;;;10.83;;
7707;SDS011;3896;48.758;8.888;2022-12-05T03:11:53;24.93;;;10.97;;
7707;SDS011;3896;48.758;8.888;2022-12-05T03:14:32;23.53;;;11.03;;
7707;SDS011;3896;48.758;8.888;2022-12-05T03:17:02;25.50;;;11.13;;
7707;SDS011;3896;48.758;8.888;2022-12-05T03:19:43;24.73;;;12.30;;
7707;SDS011;3896;48.758;8.888;2022-12-05T03:22:14;25.37;;;10.47;;
7707;SDS011;3896;48.758;8.888;2022-12-05T03:24:48;20.80;;;10.43;;
7707;SDS011;3896;48.758;8.888;2022-12-05T03:28:01;29.07;;;12.73;;
7707;SDS011;3896;48.758;8.888;2022-12-05T03:30:13;28.27;;;11.63;;
7707;SDS011;3896;48.758;8.888;2022-12-05T03:35:55;24.20;;;11.90;;
7707;SDS011;3896;48.758;8.888;2022-12-05T03:38:29;23.97;;;10.43;;
7707;SDS011;3896;48.758;8.888;2022-12-05T03:46:26;23.77;;;10.20;;
7707;SDS011;3896;48.758;8.888;2022-12-05T03:51:32;26.73;;;11.70;;
7707;SDS011;3896;48.758;8.888;2022-12-05T03:56:43;22.53;;;10.73;;
7707;SDS011;3896;48.758;8.888;2022-12-05T04:02:06;25.13;;;11.50;;
7707;SDS011;3896;48.758;8.888;2022-12-05T04:04:39;18.53;;;10.30;;
7707;SDS011;3896;48.758;8.888;2022-12-05T04:07:12;20.17;;;10.80;;
7707;SDS011;3896;48.758;8.888;2022-12-05T04:09:44;18.03;;;10.53;;
7707;SDS011;3896;48.758;8.888;2022-12-05T04:12:16;24.00;;;11.53;;
7707;SDS011;3896;48.758;8.888;2022-12-05T04:14:49;22.17;;;10.63;;
7707;SDS011;3896;48.758;8.888;2022-12-05T04:20:15;26.77;;;11.50;;
7707;SDS011;3896;48.758;8.888;2022-12-05T04:23:02;18.07;;;9.43;;
7707;SDS011;3896;48.758;8.888;2022-12-05T04:25:29;25.30;;;11.50;;
7707;SDS011;3896;48.758;8.888;2022-12-05T04:31:13;20.30;;;10.17;;
7707;SDS011;3896;48.758;8.888;2022-12-05T04:36:38;19.20;;;10.40;;
7707;SDS011;3896;48.758;8.888;2022-12-05T04:41:44;21.23;;;11.13;;
7707;SDS011;3896;48.758;8.888;2022-12-05T04:44:15;22.23;;;10.47;;
7707;SDS011;3896;48.758;8.888;2022-12-05T04:46:44;24.30;;;10.50;;
7707;SDS011;3896;48.758;8.888;2022-12-05T04:49:14;19.97;;;10.53;;
7707;SDS011;3896;48.758;8.888;2022-12-05T04:51:44;19.10;;;9.53;;
7707;SDS011;3896;48.758;8.888;2022-12-05T04:54:14;20.07;;;10.23;;
7707;SDS011;3896;48.758;8.888;2022-12-05T04:56:47;19.53;;;10.10;;
7707;SDS011;3896;48.758;8.888;2022-12-05T04:59:16;19.27;;;9.90;;
7707;SDS011;3896;48.758;8.888;2022-12-05T05:01:49;20.73;;;10.63;;
7707;SDS011;3896;48.758;8.888;2022-12-05T05:04:26;19.87;;;10.63;;
7707;SDS011;3896;48.758;8.888;2022-12-05T05:07:03;17.77;;;10.10;;
7707;SDS011;3896;48.758;8.888;2022-12-05T05:09:33;13.93;;;9.17;;
7707;SDS011;3896;48.758;8.888;2022-12-05T05:11:59;17.90;;;9.50;;
7707;SDS011;3896;48.758;8.888;2022-12-05T05:14:25;18.30;;;9.47;;
7707;SDS011;3896;48.758;8.888;2022-12-05T05:16:50;18.23;;;9.13;;
7707;SDS011;3896;48.758;8.888;2022-12-05T05:19:16;15.97;;;10.20;;
7707;SDS011;3896;48.758;8.888;2022-12-05T05:21:42;15.07;;;8.87;;
7707;SDS011;3896;48.758;8.888;2022-12-05T05:24:08;17.30;;;9.33;;
7707;SDS011;3896;48.758;8.888;2022-12-05T05:26:39;16.20;;;9.37;;
7707;SDS011;3896;48.758;8.888;2022-12-05T05:29:07;16.17;;;7.93;;
7707;SDS011;3896;48.758;8.888;2022-12-05T05:31:33;18.53;;;10.07;;
7707;SDS011;3896;48.758;8.888;2022-12-05T05:33:59;18.33;;;9.17;;
7707;SDS011;3896;48.758;8.888;2022-12-05T05:36:26;15.33;;;8.00;;
7707;SDS011;3896;48.758;8.888;2022-12-05T05:38:56;14.83;;;8.27;;
7707;SDS011;3896;48.758;8.888;2022-12-05T05:41:33;17.20;;;9.17;;
7707;SDS011;3896;48.758;8.888;2022-12-05T05:44:00;14.57;;;8.77;;
7707;SDS011;3896;48.758;8.888;2022-12-05T05:46:27;12.93;;;7.67;;
7707;SDS011;3896;48.758;8.888;2022-12-05T05:48:54;14.27;;;7.70;;
7707;SDS011;3896;48.758;8.888;2022-12-05T05:51:20;14.53;;;8.60;;
7707;SDS011;3896;48.758;8.888;2022-12-05T05:53:47;15.87;;;8.33;;
7707;SDS011;3896;48.758;8.888;2022-12-05T05:56:14;12.47;;;7.43;;
7707;SDS011;3896;48.758;8.888;2022-12-05T05:58:41;13.87;;;8.47;;
7707;SDS011;3896;48.758;8.888;2022-12-05T06:01:08;13.63;;;8.37;;
7707;SDS011;3896;48.758;8.888;2022-12-05T06:03:36;13.50;;;8.03;;
7707;SDS011;3896;48.758;8.888;2022-12-05T06:06:03;15.67;;;7.73;;
7707;SDS011;3896;48.758;8.888;2022-12-05T06:08:31;13.37;;;7.87;;
7707;SDS011;3896;48.758;8.888;2022-12-05T06:10:58;12.40;;;7.90;;
7707;SDS011;3896;48.758;8.888;2022-12-05T06:13:25;16.97;;;7.73;;
7707;SDS011;3896;48.758;8.888;2022-12-05T06:15:50;11.27;;;7.13;;
7707;SDS011;3896;48.758;8.888;2022-12-05T06:18:16;10.87;;;7.20;;
7707;SDS011;3896;48.758;8.888;2022-12-05T06:20:49;12.77;;;7.40;;
7707;SDS011;3896;48.758;8.888;2022-12-05T06:23:16;13.60;;;7.57;;
7707;SDS011;3896;48.758;8.888;2022-12-05T06:25:46;11.27;;;6.83;;
7707;SDS011;3896;48.758;8.888;2022-12-05T06:28:12;11.43;;;6.60;;
7707;SDS011;3896;48.758;8.888;2022-12-05T06:30:38;12.00;;;6.73;;
7707;SDS011;3896;48.758;8.888;2022-12-05T06:33:04;16.30;;;8.73;;
7707;SDS011;3896;48.758;8.888;2022-12-05T06:35:29;14.50;;;8.43;;
7707;SDS011;3896;48.758;8.888;2022-12-05T06:37:55;12.00;;;8.13;;
7707;SDS011;3896;48.758;8.888;2022-12-05T06:40:21;12.07;;;7.20;;
7707;SDS011;3896;48.758;8.888;2022-12-05T06:42:47;11.67;;;7.87;;
7707;SDS011;3896;48.758;8.888;2022-12-05T06:45:12;11.77;;;7.33;;
7707;SDS011;3896;48.758;8.888;2022-12-05T06:47:38;11.60;;;7.07;;
7707;SDS011;3896;48.758;8.888;2022-12-05T06:50:03;15.93;;;8.23;;
7707;SDS011;3896;48.758;8.888;2022-12-05T06:52:30;14.30;;;8.33;;
7707;SDS011;3896;48.758;8.888;2022-12-05T06:54:55;12.50;;;8.17;;
7707;SDS011;3896;48.758;8.888;2022-12-05T06:57:21;15.27;;;8.20;;
7707;SDS011;3896;48.758;8.888;2022-12-05T06:59:46;11.33;;;7.27;;
7707;SDS011;3896;48.758;8.888;2022-12-05T07:02:12;13.37;;;8.03;;
7707;SDS011;3896;48.758;8.888;2022-12-05T07:04:38;11.73;;;7.70;;
7707;SDS011;3896;48.758;8.888;2022-12-05T07:07:03;12.03;;;7.13;;
7707;SDS011;3896;48.758;8.888;2022-12-05T07:09:30;9.63;;;7.00;;
7707;SDS011;3896;48.758;8.888;2022-12-05T07:12:12;10.27;;;7.17;;
7707;SDS011;3896;48.758;8.888;2022-12-05T07:14:40;13.23;;;7.67;;
7707;SDS011;3896;48.758;8.888;2022-12-05T07:17:07;11.67;;;7.67;;
7707;SDS011;3896;48.758;8.888;2022-12-05T07:19:33;11.47;;;6.60;;
7707;SDS011;3896;48.758;8.888;2022-12-05T07:21:59;11.73;;;7.57;;
7707;SDS011;3896;48.758;8.888;2022-12-05T07:24:25;14.60;;;7.80;;
7707;SDS011;3896;48.758;8.888;2022-12-05T07:26:51;12.33;;;8.00;;
7707;SDS011;3896;48.758;8.888;2022-12-05T07:29:17;13.97;;;7.37;;
7707;SDS011;3896;48.758;8.888;2022-12-05T07:31:43;14.37;;;7.20;;
7707;SDS011;3896;48.758;8.888;2022-12-05T07:34:08;12.93;;;7.30;;
7707;SDS011;3896;48.758;8.888;2022-12-05T07:36:34;11.40;;;7.10;;
7707;SDS011;3896;48.758;8.888;2022-12-05T07:39:00;15.40;;;7.73;;
7707;SDS011;3896;48.758;8.888;2022-12-05T07:41:27;11.80;;;7.13;;
7707;SDS011;3896;48.758;8.888;2022-12-05T07:43:55;12.67;;;7.73;;
7707;SDS011;3896;48.758;8.888;2022-12-05T07:46:21;15.00;;;9.27;;
7707;SDS011;3896;48.758;8.888;2022-12-05T07:48:48;14.53;;;8.33;;
7707;SDS011;3896;48.758;8.888;2022-12-05T07:51:14;15.33;;;8.20;;
7707;SDS011;3896;48.758;8.888;2022-12-05T07:53:41;12.90;;;7.73;;
7707;SDS011;3896;48.758;8.888;2022-12-05T07:56:08;14.73;;;8.00;;
7707;SDS011;3896;48.758;8.888;2022-12-05T07:58:41;12.13;;;7.40;;
7707;SDS011;3896;48.758;8.888;2022-12-05T08:01:08;11.83;;;7.80;;
7707;SDS011;3896;48.758;8.888;2022-12-05T08:03:35;12.07;;;7.57;;
7707;SDS011;3896;48.758;8.888;2022-12-05T08:06:09;10.17;;;7.20;;
7707;SDS011;3896;48.758;8.888;2022-12-05T08:08:37;11.47;;;6.60;;
7707;SDS011;3896;48.758;8.888;2022-12-05T08:11:06;11.43;;;7.77;;
7707;SDS011;3896;48.758;8.888;2022-12-05T08:13:41;11.07;;;6.77;;
7707;SDS011;3896;48.758;8.888;2022-12-05T08:16:09;11.03;;;6.73;;
7707;SDS011;3896;48.758;8.888;2022-12-05T08:18:36;9.37;;;5.73;;
7707;SDS011;3896;48.758;8.888;2022-12-05T08:21:09;10.53;;;6.60;;
7707;SDS011;3896;48.758;8.888;2022-12-05T08:23:36;9.77;;;6.50;;
7707;SDS011;3896;48.758;8.888;2022-12-05T08:26:03;10.50;;;6.47;;
7707;SDS011;3896;48.758;8.888;2022-12-05T08:28:31;11.27;;;7.13;;
7707;SDS011;3896;48.758;8.888;2022-12-05T08:31:04;9.63;;;6.97;;
7707;SDS011;3896;48.758;8.888;2022-12-05T08:33:31;11.60;;;6.53;;
7707;SDS011;3896;48.758;8.888;2022-12-05T08:35:58;11.63;;;7.10;;
7707;SDS011;3896;48.758;8.888;2022-12-05T08:38:28;10.30;;;6.80;;
7707;SDS011;3896;48.758;8.888;2022-12-05T08:40:54;9.97;;;6.67;;
7707;SDS011;3896;48.758;8.888;2022-12-05T08:43:20;9.03;;;6.27;;
7707;SDS011;3896;48.758;8.888;2022-12-05T08:45:52;11.50;;;7.17;;
7707;SDS011;3896;48.758;8.888;2022-12-05T08:48:18;10.40;;;6.57;;
7707;SDS011;3896;48.758;8.888;2022-12-05T08:50:44;7.27;;;6.20;;
7707;SDS011;3896;48.758;8.888;2022-12-05T08:53:10;7.50;;;6.23;;
7707;SDS011;3896;48.758;8.888;2022-12-05T08:55:36;8.73;;;6.87;;
7707;SDS011;3896;48.758;8.888;2022-12-05T08:58:02;9.30;;;7.00;;
7707;SDS011;3896;48.758;8.888;2022-12-05T09:00:28;10.70;;;6.90;;
7707;SDS011;3896;48.758;8.888;2022-12-05T09:02:53;10.57;;;6.30;;
7707;SDS011;3896;48.758;8.888;2022-12-05T09:05:19;11.53;;;7.07;;
7707;SDS011;3896;48.758;8.888;2022-12-05T09:07:46;11.20;;;7.57;;
7707;SDS011;3896;48.758;8.888;2022-12-05T09:10:11;10.40;;;6.20;;
7707;SDS011;3896;48.758;8.888;2022-12-05T09:12:37;9.20;;;6.60;;
7707;SDS011;3896;48.758;8.888;2022-12-05T09:15:05;10.90;;;6.73;;
7707;SDS011;3896;48.758;8.888;2022-12-05T09:17:32;10.87;;;6.97;;
7707;SDS011;3896;48.758;8.888;2022-12-05T09:19:57;11.53;;;7.10;;
7707;SDS011;3896;48.758;8.888;2022-12-05T09:22:23;7.87;;;6.10;;
7707;SDS011;3896;48.758;8.888;2022-12-05T09:24:48;12.73;;;7.03;;
7707;SDS011;3896;48.758;8.888;2022-12-05T09:27:14;10.70;;;7.93;;
7707;SDS011;3896;48.758;8.888;2022-12-05T09:29:40;9.97;;;7.10;;
7707;SDS011;3896;48.758;8.888;2022-12-05T09:32:07;8.37;;;6.87;;
7707;SDS011;3896;48.758;8.888;2022-12-05T09:34:33;11.67;;;6.63;;
7707;SDS011;3896;48.758;8.888;2022-12-05T09:36:59;11.40;;;8.17;;
7707;SDS011;3896;48.758;8.888;2022-12-05T09:39:26;10.00;;;6.57;;
7707;SDS011;3896;48.758;8.888;2022-12-05T09:41:55;12.00;;;7.60;;
7707;SDS011;3896;48.758;8.888;2022-12-05T09:47:22;8.97;;;6.60;;
7707;SDS011;3896;48.758;8.888;2022-12-05T09:50:10;11.00;;;7.20;;
7707;SDS011;3896;48.758;8.888;2022-12-05T09:52:54;8.87;;;6.23;;
7707;SDS011;3896;48.758;8.888;2022-12-05T09:58:11;9.17;;;5.80;;
7707;SDS011;3896;48.758;8.888;2022-12-05T10:01:16;8.57;;;5.53;;
7707;SDS011;3896;48.758;8.888;2022-12-05T10:06:40;8.53;;;5.97;;
7707;SDS011;3896;48.758;8.888;2022-12-05T10:17:51;6.80;;;4.90;;
7707;SDS011;3896;48.758;8.888;2022-12-05T10:20:32;8.40;;;5.87;;
7707;SDS011;3896;48.758;8.888;2022-12-05T10:23:05;8.77;;;6.20;;
7707;SDS011;3896;48.758;8.888;2022-12-05T10:25:38;9.63;;;6.03;;
7707;SDS011;3896;48.758;8.888;2022-12-05T10:28:10;8.90;;;6.00;;
7707;SDS011;3896;48.758;8.888;2022-12-05T10:30:53;9.23;;;6.43;;
7707;SDS011;3896;48.758;8.888;2022-12-05T10:33:22;8.70;;;6.47;;
7707;SDS011;3896;48.758;8.888;2022-12-05T10:35:52;9.90;;;6.33;;
7707;SDS011;3896;48.758;8.888;2022-12-05T10:40:50;7.40;;;4.73;;
7707;SDS011;3896;48.758;8.888;2022-12-05T10:43:25;9.13;;;6.03;;
7707;SDS011;3896;48.758;8.888;2022-12-05T10:45:55;8.63;;;5.67;;
7707;SDS011;3896;48.758;8.888;2022-12-05T10:48:21;7.03;;;5.30;;
7707;SDS011;3896;48.758;8.888;2022-12-05T10:50:48;8.50;;;5.70;;
7707;SDS011;3896;48.758;8.888;2022-12-05T10:53:17;8.40;;;6.13;;
7707;SDS011;3896;48.758;8.888;2022-12-05T10:55:48;9.07;;;6.13;;
7707;SDS011;3896;48.758;8.888;2022-12-05T10:58:34;7.03;;;4.63;;
7707;SDS011;3896;48.758;8.888;2022-12-05T11:01:07;7.57;;;5.30;;
7707;SDS011;3896;48.758;8.888;2022-12-05T11:03:35;7.30;;;5.13;;
7707;SDS011;3896;48.758;8.888;2022-12-05T11:06:16;8.20;;;6.60;;
7707;SDS011;3896;48.758;8.888;2022-12-05T11:08:42;9.90;;;6.27;;
7707;SDS011;3896;48.758;8.888;2022-12-05T11:11:17;6.53;;;5.30;;
7707;SDS011;3896;48.758;8.888;2022-12-05T11:13:55;11.00;;;6.13;;
7707;SDS011;3896;48.758;8.888;2022-12-05T11:16:24;10.27;;;6.80;;
7707;SDS011;3896;48.758;8.888;2022-12-05T11:18:54;9.27;;;6.00;;
7707;SDS011;3896;48.758;8.888;2022-12-05T11:21:20;10.10;;;5.97;;
7707;SDS011;3896;48.758;8.888;2022-12-05T11:23:47;12.93;;;6.63;;
7707;SDS011;3896;48.758;8.888;2022-12-05T11:26:32;7.70;;;5.00;;
7707;SDS011;3896;48.758;8.888;2022-12-05T11:29:00;8.47;;;5.60;;
7707;SDS011;3896;48.758;8.888;2022-12-05T11:31:28;5.77;;;5.10;;
7707;SDS011;3896;48.758;8.888;2022-12-05T11:34:03;7.70;;;4.60;;
7707;SDS011;3896;48.758;8.888;2022-12-05T11:36:38;9.10;;;6.10;;
7707;SDS011;3896;48.758;8.888;2022-12-05T11:39:27;4.67;;;4.20;;
7707;SDS011;3896;48.758;8.888;2022-12-05T11:50:17;4.40;;;3.90;;
7707;SDS011;3896;48.758;8.888;2022-12-05T11:53:09;3.60;;;3.13;;
7707;SDS011;3896;48.758;8.888;2022-12-05T12:01:29;6.93;;;3.40;;
7707;SDS011;3896;48.758;8.888;2022-12-05T12:17:40;4.40;;;2.93;;
7707;SDS011;3896;48.758;8.888;2022-12-05T12:25:43;4.60;;;3.63;;
7707;SDS011;3896;48.758;8.888;2022-12-05T12:33:31;4.33;;;3.93;;
7707;SDS011;3896;48.758;8.888;2022-12-05T12:38:44;5.07;;;3.13;;
7707;SDS011;3896;48.758;8.888;2022-12-05T12:46:51;2.00;;;1.90;;
7707;SDS011;3896;48.758;8.888;2022-12-05T12:52:16;4.13;;;2.67;;
7707;SDS011;3896;48.758;8.888;2022-12-05T12:57:46;2.50;;;2.30;;
7707;SDS011;3896;48.758;8.888;2022-12-05T13:03:33;2.57;;;2.33;;
7707;SDS011;3896;48.758;8.888;2022-12-05T13:06:20;2.57;;;2.00;;
7707;SDS011;3896;48.758;8.888;2022-12-05T13:09:33;2.27;;;2.00;;
7707;SDS011;3896;48.758;8.888;2022-12-05T13:11:58;2.43;;;2.20;;
7707;SDS011;3896;48.758;8.888;2022-12-05T13:14:30;1.90;;;1.80;;
7707;SDS011;3896;48.758;8.888;2022-12-05T13:16:58;2.07;;;1.93;;
7707;SDS011;3896;48.758;8.888;2022-12-05T13:19:29;1.93;;;1.83;;
7707;SDS011;3896;48.758;8.888;2022-12-05T13:22:06;2.30;;;2.10;;
7707;SDS011;3896;48.758;8.888;2022-12-05T13:24:33;2.73;;;2.37;;
7707;SDS011;3896;48.758;8.888;2022-12-05T13:27:00;2.50;;;2.27;;
7707;SDS011;3896;48.758;8.888;2022-12-05T13:29:33;2.13;;;1.90;;
7707;SDS011;3896;48.758;8.888;2022-12-05T13:32:00;2.33;;;1.90;;
7707;SDS011;3896;48.758;8.888;2022-12-05T13:36:53;3.23;;;2.60;;
7707;SDS011;3896;48.758;8.888;2022-12-05T13:39:49;4.67;;;2.00;;
7707;SDS011;3896;48.758;8.888;2022-12-05T13:42:34;4.00;;;2.47;;
7707;SDS011;3896;48.758;8.888;2022-12-05T13:45:17;4.27;;;2.93;;
7707;SDS011;3896;48.758;8.888;2022-12-05T13:47:49;2.30;;;2.07;;
7707;SDS011;3896;48.758;8.888;2022-12-05T13:50:32;3.40;;;2.23;;
7707;SDS011;3896;48.758;8.888;2022-12-05T13:56:04;3.83;;;2.73;;
7707;SDS011;3896;48.758;8.888;2022-12-05T13:58:40;3.60;;;2.70;;
7707;SDS011;3896;48.758;8.888;2022-12-05T14:04:00;4.33;;;2.97;;
7707;SDS011;3896;48.758;8.888;2022-12-05T14:17:23;2.10;;;2.00;;
7707;SDS011;3896;48.758;8.888;2022-12-05T14:22:40;2.67;;;1.77;;
7707;SDS011;3896;48.758;8.888;2022-12-05T14:25:24;2.53;;;2.30;;
7707;SDS011;3896;48.758;8.888;2022-12-05T14:28:37;2.17;;;1.60;;
7707;SDS011;3896;48.758;8.888;2022-12-05T14:33:39;2.90;;;2.00;;
7707;SDS011;3896;48.758;8.888;2022-12-05T14:36:06;4.63;;;2.00;;
7707;SDS011;3896;48.758;8.888;2022-12-05T14:38:37;4.53;;;1.80;;
7707;SDS011;3896;48.758;8.888;2022-12-05T14:41:14;3.70;;;2.10;;
7707;SDS011;3896;48.758;8.888;2022-12-05T14:43:50;7.00;;;2.13;;
7707;SDS011;3896;48.758;8.888;2022-12-05T14:46:22;2.33;;;1.70;;
7707;SDS011;3896;48.758;8.888;2022-12-05T14:48:56;3.13;;;2.00;;
7707;SDS011;3896;48.758;8.888;2022-12-05T14:54:03;2.67;;;2.20;;
7707;SDS011;3896;48.758;8.888;2022-12-05T14:56:50;2.40;;;2.10;;
7707;SDS011;3896;48.758;8.888;2022-12-05T14:59:31;2.03;;;1.90;;
7707;SDS011;3896;48.758;8.888;2022-12-05T15:02:03;3.33;;;2.43;;
7707;SDS011;3896;48.758;8.888;2022-12-05T15:04:31;3.17;;;2.10;;
7707;SDS011;3896;48.758;8.888;2022-12-05T15:07:17;3.03;;;2.30;;
7707;SDS011;3896;48.758;8.888;2022-12-05T15:10:02;3.40;;;2.30;;
7707;SDS011;3896;48.758;8.888;2022-12-05T15:12:39;2.63;;;2.20;;
7707;SDS011;3896;48.758;8.888;2022-12-05T15:23:43;1.63;;;1.53;;
7707;SDS011;3896;48.758;8.888;2022-12-05T15:26:20;2.30;;;1.93;;
7707;SDS011;3896;48.758;8.888;2022-12-05T15:28:59;5.37;;;2.93;;
7707;SDS011;3896;48.758;8.888;2022-12-05T15:31:27;1.53;;;1.43;;
7707;SDS011;3896;48.758;8.888;2022-12-05T15:33:54;1.87;;;1.77;;
7707;SDS011;3896;48.758;8.888;2022-12-05T15:36:35;2.40;;;1.87;;
7707;SDS011;3896;48.758;8.888;2022-12-05T15:39:13;2.13;;;1.93;;
7707;SDS011;3896;48.758;8.888;2022-12-05T15:41:49;2.23;;;1.90;;
7707;SDS011;3896;48.758;8.888;2022-12-05T15:44:16;2.20;;;2.00;;
7707;SDS011;3896;48.758;8.888;2022-12-05T15:46:53;2.43;;;2.23;;
7707;SDS011;3896;48.758;8.888;2022-12-05T15:49:24;2.50;;;2.30;;
7707;SDS011;3896;48.758;8.888;2022-12-05T15:51:56;4.20;;;2.77;;
7707;SDS011;3896;48.758;8.888;2022-12-05T15:54:31;6.10;;;4.57;;
7707;SDS011;3896;48.758;8.888;2022-12-05T15:57:04;6.07;;;4.80;;
7707;SDS011;3896;48.758;8.888;2022-12-05T15:59:39;9.07;;;5.53;;
7707;SDS011;3896;48.758;8.888;2022-12-05T16:02:16;7.10;;;5.83;;
7707;SDS011;3896;48.758;8.888;2022-12-05T16:04:51;7.03;;;5.80;;
7707;SDS011;3896;48.758;8.888;2022-12-05T16:07:19;7.87;;;5.40;;
7707;SDS011;3896;48.758;8.888;2022-12-05T16:09:47;4.50;;;4.10;;
7707;SDS011;3896;48.758;8.888;2022-12-05T16:12:18;3.90;;;3.27;;
7707;SDS011;3896;48.758;8.888;2022-12-05T16:15:04;4.13;;;3.53;;
7707;SDS011;3896;48.758;8.888;2022-12-05T16:17:39;4.00;;;3.20;;
7707;SDS011;3896;48.758;8.888;2022-12-05T16:20:29;3.10;;;2.50;;
7707;SDS011;3896;48.758;8.888;2022-12-05T16:23:01;3.30;;;2.67;;
7707;SDS011;3896;48.758;8.888;2022-12-05T16:25:32;3.33;;;2.90;;
7707;SDS011;3896;48.758;8.888;2022-12-05T16:30:31;5.33;;;3.07;;
7707;SDS011;3896;48.758;8.888;2022-12-05T16:33:04;3.10;;;2.77;;
7707;SDS011;3896;48.758;8.888;2022-12-05T16:38:12;2.67;;;2.37;;
7707;SDS011;3896;48.758;8.888;2022-12-05T16:43:27;9.47;;;2.50;;
7707;SDS011;3896;48.758;8.888;2022-12-05T16:45:54;2.50;;;1.80;;
7707;SDS011;3896;48.758;8.888;2022-12-05T16:48:24;3.03;;;2.30;;
7707;SDS011;3896;48.758;8.888;2022-12-05T16:50:51;4.30;;;2.53;;
7707;SDS011;3896;48.758;8.888;2022-12-05T16:53:38;2.50;;;2.30;;
7707;SDS011;3896;48.758;8.888;2022-12-05T16:56:06;2.80;;;2.43;;
7707;SDS011;3896;48.758;8.888;2022-12-05T16:58:36;3.33;;;2.77;;
7707;SDS011;3896;48.758;8.888;2022-12-05T17:01:03;4.33;;;3.27;;
7707;SDS011;3896;48.758;8.888;2022-12-05T17:03:30;3.03;;;2.73;;
7707;SDS011;3896;48.758;8.888;2022-12-05T17:05:57;4.27;;;2.50;;
7707;SDS011;3896;48.758;8.888;2022-12-05T17:08:23;2.90;;;2.67;;
7707;SDS011;3896;48.758;8.888;2022-12-05T17:10:49;4.17;;;2.40;;
7707;SDS011;3896;48.758;8.888;2022-12-05T17:13:16;4.23;;;3.03;;
7707;SDS011;3896;48.758;8.888;2022-12-05T17:15:43;2.83;;;2.60;;
7707;SDS011;3896;48.758;8.888;2022-12-05T17:18:13;3.20;;;2.60;;
7707;SDS011;3896;48.758;8.888;2022-12-05T17:20:45;3.27;;;2.73;;
7707;SDS011;3896;48.758;8.888;2022-12-05T17:23:18;4.73;;;3.20;;
7707;SDS011;3896;48.758;8.888;2022-12-05T17:25:53;3.57;;;3.23;;
7707;SDS011;3896;48.758;8.888;2022-12-05T17:28:21;3.90;;;3.07;;
7707;SDS011;3896;48.758;8.888;2022-12-05T17:30:48;3.20;;;2.87;;
7707;SDS011;3896;48.758;8.888;2022-12-05T17:33:14;4.97;;;3.27;;
7707;SDS011;3896;48.758;8.888;2022-12-05T17:35:41;3.97;;;2.83;;
7707;SDS011;3896;48.758;8.888;2022-12-05T17:38:07;4.27;;;3.17;;
7707;SDS011;3896;48.758;8.888;2022-12-05T17:40:34;5.10;;;3.43;;
7707;SDS011;3896;48.758;8.888;2022-12-05T17:43:00;4.17;;;2.77;;
7707;SDS011;3896;48.758;8.888;2022-12-05T17:45:26;3.80;;;3.27;;
7707;SDS011;3896;48.758;8.888;2022-12-05T17:47:51;4.40;;;2.83;;
7707;SDS011;3896;48.758;8.888;2022-12-05T17:50:18;5.07;;;3.17;;
7707;SDS011;3896;48.758;8.888;2022-12-05T17:52:48;4.80;;;2.90;;
7707;SDS011;3896;48.758;8.888;2022-12-05T17:55:16;3.50;;;3.20;;
7707;SDS011;3896;48.758;8.888;2022-12-05T17:57:47;3.87;;;3.33;;
7707;SDS011;3896;48.758;8.888;2022-12-05T18:00:14;4.60;;;3.40;;
7707;SDS011;3896;48.758;8.888;2022-12-05T18:02:42;4.60;;;3.70;;
7707;SDS011;3896;48.758;8.888;2022-12-05T18:05:09;4.00;;;3.17;;
7707;SDS011;3896;48.758;8.888;2022-12-05T18:07:36;3.63;;;3.33;;
7707;SDS011;3896;48.758;8.888;2022-12-05T18:10:03;5.47;;;3.47;;
7707;SDS011;3896;48.758;8.888;2022-12-05T18:12:30;5.37;;;4.40;;